Time;durP1;ratioP1;P1;durP2;ratioP2;P2;SDS_P1;SDS_P2;PMS_P1;PMS_P2;Temp;Humidity;BMP_temperature;BMP_pressure;BME280_temperature;BME280_humidity;BME280_pressure;Samples;Min_cycle;Max_cycle;Signal;HPM_P1;HPM_P2
2022/01/30 00:00:47;;;;;;;;;;;;;;;;;;4997224;28;19914;-76
2022/01/30 00:03:13;;;;;;;;;;;;;;;;;;4996439;28;19910;-76
2022/01/30 00:05:39;;;;;;;;;;;;;;;;;;4998588;28;20292;-77
2022/01/30 00:08:05;;;;;;;;;;;;;;;;;;5015224;28;19910;-76
2022/01/30 00:10:36;;;;;;;;;;;;;;;;;;4994931;28;20325;-76
2022/01/30 00:13:03;;;;;;;;;;;;;;;;;;4995446;28;19960;-77
2022/01/30 00:18:17;;;;;;;;;;;;;;;;;;4996297;28;19918;-78
2022/01/30 00:20:47;;;;;;;;;;;;;;;;;;4996601;28;19917;-75
2022/01/30 00:23:21;;;;;;;;;;;;;;;;;;4995458;28;19929;-78
2022/01/30 00:25:51;;;;;;;;;;;;;;;;;;4995802;28;20382;-78
2022/01/30 00:28:19;;;;;;;;;;;;;;;;;;4995434;28;19909;-78
2022/01/30 00:30:45;;;;;;;;;;;;;;;;;;4995885;28;19921;-78
2022/01/30 00:33:10;;;;;;;;;;;;;;;;;;4994898;28;19910;-78
2022/01/30 00:35:36;;;;;;;;;;;;;;;;;;4994783;28;19921;-78
2022/01/30 00:38:03;;;;;;;;;;;;;;;;;;4996327;28;19913;-78
2022/01/30 00:40:28;;;;;;;;;;;;;;;;;;4996103;28;19920;-78
2022/01/30 00:42:54;;;;;;;;;;;;;;;;;;4996200;28;20320;-76
2022/01/30 00:45:20;;;;;;;;;;;;;;;;;;4995532;28;19914;-78
2022/01/30 00:47:46;;;;;;;;;;;;;;;;;;4996181;28;19910;-78
2022/01/30 00:50:12;;;;;;;;;;;;;;;;;;4995684;28;19914;-78
2022/01/30 00:52:38;;;;;;;;;;;;;;;;;;4995919;28;19920;-78
2022/01/30 00:55:04;;;;;;;;;;;;;;;;;;4996032;28;19913;-78
2022/01/30 00:57:30;;;;;;;;;;;;;;;;;;4995670;28;20285;-78
2022/01/30 00:59:56;;;;;;;;;;;;;;;;;;4995825;28;19910;-78
2022/01/30 01:02:21;;;;;;;;;;;;;;;;;;4995709;28;19936;-78
2022/01/30 01:04:48;;;;;;;;;;;;;;;;;;4994954;28;19913;-78
2022/01/30 01:07:22;;;;;;;;;;;;;;;;;;4994094;28;19922;-78
2022/01/30 01:10:06;;;;;;;;;;;;;;;;;;4994433;28;19914;-78
2022/01/30 01:12:54;;;;;;;;;;;;;;;;;;4994343;28;20093;-77
2022/01/30 01:23:54;;;;;;;;;;;;;;;;;;4973619;28;19941;-78
2022/01/30 01:26:20;;;;;;;;;;;;;;;;;;4973573;28;19911;-78
2022/01/30 01:28:46;;;;;;;;;;;;;;;;;;4957191;28;19918;-78
2022/01/30 01:31:12;;;;;;;;;;;;;;;;;;4973786;28;19910;-78
2022/01/30 01:36:07;;;;;;;;;;;;;;;;;;4973222;28;19914;-78
2022/01/30 01:38:32;;;;;;;;;;;;;;;;;;4973420;28;19915;-78
2022/01/30 01:40:58;;;;;;;;;;;;;;;;;;4973705;28;19910;-78
2022/01/30 01:43:24;;;;;;;;;;;;;;;;;;4972706;28;20386;-78
2022/01/30 01:45:52;;;;;;;;;;;;;;;;;;4971405;28;19918;-78
2022/01/30 01:48:18;;;;;;;;;;;;;;;;;;4967707;28;19961;-78
2022/01/30 01:50:50;;;;;;;;;;;;;;;;;;4953957;29;20376;-78
2022/01/30 01:53:16;;;;;;;;;;;;;;;;;;4954113;29;19938;-79
2022/01/30 01:55:42;;;;;;;;;;;;;;;;;;4953736;29;21195;-78
2022/01/30 01:58:08;;;;;;;;;;;;;;;;;;4969878;28;20306;-78
2022/01/30 02:00:34;;;;;;;;;;;;;;;;;;4979347;28;19937;-78
2022/01/30 02:03:00;;;;;;;;;;;;;;;;;;4994200;28;20258;-78
2022/01/30 02:05:28;;;;;;;;;;;;;;;;;;4992948;28;20000;-78
2022/01/30 02:08:22;;;;;;;;;;;;;;;;;;4994323;28;19964;-76
2022/01/30 02:13:40;;;;;;;;;;;;;;;;;;4993788;28;19914;-76
2022/01/30 02:24:16;;;;;;;;;;;;;;;;;;4994332;28;20024;-76
2022/01/30 02:26:45;;;;;;;;;;;;;;;;;;4994152;28;19914;-78
2022/01/30 02:29:10;;;;;;;;;;;;;;;;;;4992415;28;19956;-76
2022/01/30 02:31:39;;;;;;;;;;;;;;;;;;4994218;28;20377;-78
2022/01/30 02:34:04;;;;;;;;;;;;;;;;;;4992931;28;19910;-76
2022/01/30 02:36:30;;;;;;;;;;;;;;;;;;4994101;28;19912;-76
2022/01/30 02:39:00;;;;;;;;;;;;;;;;;;4994049;28;19936;-76
2022/01/30 02:41:26;;;;;;;;;;;;;;;;;;4993678;28;19910;-78
2022/01/30 02:44:08;;;;;;;;;;;;;;;;;;4991878;28;19964;-76
2022/01/30 02:46:38;;;;;;;;;;;;;;;;;;4992511;28;19914;-79
2022/01/30 02:51:49;;;;;;;;;;;;;;;;;;4993016;28;19917;-78
2022/01/30 02:54:15;;;;;;;;;;;;;;;;;;4993813;28;20381;-78
2022/01/30 02:56:41;;;;;;;;;;;;;;;;;;4992263;28;19948;-78
2022/01/30 02:59:07;;;;;;;;;;;;;;;;;;4993626;28;19917;-78
2022/01/30 03:01:33;;;;;;;;;;;;;;;;;;4993503;28;19909;-78
2022/01/30 03:03:59;;;;;;;;;;;;;;;;;;4993432;28;19918;-78
2022/01/30 03:06:25;;;;;;;;;;;;;;;;;;4992110;28;20278;-78
2022/01/30 03:08:51;;;;;;;;;;;;;;;;;;4993460;28;19913;-76
2022/01/30 03:11:17;;;;;;;;;;;;;;;;;;4993092;28;19910;-76
2022/01/30 03:13:43;;;;;;;;;;;;;;;;;;4993893;28;19953;-77
2022/01/30 03:16:09;;;;;;;;;;;;;;;;;;4993020;28;20008;-78
2022/01/30 03:18:36;;;;;;;;;;;;;;;;;;4993339;28;19924;-78
2022/01/30 03:21:01;;;;;;;;;;;;;;;;;;4991859;28;19910;-78
2022/01/30 03:23:28;;;;;;;;;;;;;;;;;;4993740;28;19997;-78
2022/01/30 03:25:58;;;;;;;;;;;;;;;;;;4992775;28;20451;-78
2022/01/30 03:28:24;;;;;;;;;;;;;;;;;;4992374;28;20378;-78
2022/01/30 03:30:54;;;;;;;;;;;;;;;;;;4991982;28;20297;-78
2022/01/30 03:33:20;;;;;;;;;;;;;;;;;;4993081;28;19913;-78
2022/01/30 03:35:46;;;;;;;;;;;;;;;;;;4993353;28;19960;-77
2022/01/30 03:38:12;;;;;;;;;;;;;;;;;;4992970;28;19914;-79
2022/01/30 03:40:38;;;;;;;;;;;;;;;;;;4992605;28;19918;-78
2022/01/30 03:43:04;;;;;;;;;;;;;;;;;;4992676;28;19925;-76
2022/01/30 03:45:30;;;;;;;;;;;;;;;;;;4993440;28;20381;-79
2022/01/30 03:47:56;;;;;;;;;;;;;;;;;;4992722;28;19906;-79
2022/01/30 03:50:22;;;;;;;;;;;;;;;;;;4992746;28;20441;-77
2022/01/30 03:52:48;;;;;;;;;;;;;;;;;;4992991;28;20007;-76
2022/01/30 03:55:13;;;;;;;;;;;;;;;;;;4992132;28;19914;-77
2022/01/30 03:57:39;;;;;;;;;;;;;;;;;;4992701;28;19918;-79
2022/01/30 04:00:05;;;;;;;;;;;;;;;;;;4992765;28;19917;-78
2022/01/30 04:02:31;;;;;;;;;;;;;;;;;;4993131;28;19910;-78
2022/01/30 04:04:57;;;;;;;;;;;;;;;;;;4992405;28;19913;-78
2022/01/30 04:07:23;;;;;;;;;;;;;;;;;;4992770;28;19940;-78
2022/01/30 04:09:49;;;;;;;;;;;;;;;;;;4992396;28;20196;-76
2022/01/30 04:12:15;;;;;;;;;;;;;;;;;;4991280;28;19965;-76
2022/01/30 04:14:41;;;;;;;;;;;;;;;;;;4991408;28;20297;-76
2022/01/30 04:17:07;;;;;;;;;;;;;;;;;;4992531;28;19914;-76
2022/01/30 04:19:32;;;;;;;;;;;;;;;;;;4992848;28;20381;-77
2022/01/30 04:21:58;;;;;;;;;;;;;;;;;;4992812;28;19909;-76
2022/01/30 04:24:24;;;;;;;;;;;;;;;;;;4991260;28;19918;-78
2022/01/30 04:26:50;;;;;;;;;;;;;;;;;;4992201;28;20017;-76
2022/01/30 04:29:16;;;;;;;;;;;;;;;;;;4992273;28;19910;-77
2022/01/30 04:31:42;;;;;;;;;;;;;;;;;;4992619;28;20277;-77
2022/01/30 04:34:08;;;;;;;;;;;;;;;;;;4992670;28;19910;-76
2022/01/30 04:36:40;;;;;;;;;;;;;;;;;;4991306;28;20037;-76
2022/01/30 04:39:30;;;;;;;;;;;;;;;;;;4992032;28;19917;-76
2022/01/30 04:59:18;;;;;;;;;;;;;;;;;;4995357;28;20029;-76
2022/01/30 05:01:17;;;;;;;;;;;;;;;;;;4991221;28;19921;-76
2022/01/30 05:06:14;;;;;;;;;;;;;;;;;;4995122;28;19965;-77
2022/01/30 05:08:39;;;;;;;;;;;;;;;;;;4995514;28;19917;-77
2022/01/30 05:11:08;;;;;;;;;;;;;;;;;;4995863;28;20278;-76
2022/01/30 05:13:36;;;;;;;;;;;;;;;;;;4995501;28;19913;-76
2022/01/30 05:16:02;;;;;;;;;;;;;;;;;;4994424;28;20255;-77
2022/01/30 05:18:28;;;;;;;;;;;;;;;;;;4995342;28;19921;-76
2022/01/30 05:20:54;;;;;;;;;;;;;;;;;;4995142;28;20293;-78
2022/01/30 05:23:20;;;;;;;;;;;;;;;;;;4995102;28;19918;-78
2022/01/30 05:25:45;;;;;;;;;;;;;;;;;;4995469;28;20005;-78
2022/01/30 05:28:11;;;;;;;;;;;;;;;;;;4994487;28;20369;-78
2022/01/30 05:30:37;;;;;;;;;;;;;;;;;;4995091;28;19922;-79
2022/01/30 05:33:03;;;;;;;;;;;;;;;;;;4994662;28;20397;-76
2022/01/30 05:35:29;;;;;;;;;;;;;;;;;;4994368;28;19910;-78
2022/01/30 05:37:55;;;;;;;;;;;;;;;;;;4994132;28;19968;-78
2022/01/30 05:40:21;;;;;;;;;;;;;;;;;;4993313;28;19964;-78
2022/01/30 05:42:47;;;;;;;;;;;;;;;;;;4995491;28;20006;-76
2022/01/30 05:45:27;;;;;;;;;;;;;;;;;;4994991;28;19993;-76
2022/01/30 05:48:04;;;;;;;;;;;;;;;;;;4993710;28;19936;-78
2022/01/30 05:50:30;;;;;;;;;;;;;;;;;;4994729;28;19910;-78
2022/01/30 05:52:56;;;;;;;;;;;;;;;;;;4995320;28;19910;-76
2022/01/30 05:55:22;;;;;;;;;;;;;;;;;;4992929;28;19929;-78
2022/01/30 05:57:48;;;;;;;;;;;;;;;;;;4994305;28;20020;-76
2022/01/30 06:00:15;;;;;;;;;;;;;;;;;;4994622;28;19916;-76
2022/01/30 06:02:41;;;;;;;;;;;;;;;;;;4994691;28;20440;-76
2022/01/30 06:05:08;;;;;;;;;;;;;;;;;;4994614;28;19914;-76
2022/01/30 06:07:35;;;;;;;;;;;;;;;;;;4993994;28;20259;-76
2022/01/30 06:10:00;;;;;;;;;;;;;;;;;;4993012;28;20294;-76
2022/01/30 06:12:26;;;;;;;;;;;;;;;;;;4994339;28;19914;-77
2022/01/30 06:14:52;;;;;;;;;;;;;;;;;;4994870;28;19918;-75
2022/01/30 06:17:18;;;;;;;;;;;;;;;;;;4994194;28;19913;-78
2022/01/30 06:19:44;;;;;;;;;;;;;;;;;;4994105;28;20423;-78
2022/01/30 06:22:10;;;;;;;;;;;;;;;;;;4994593;28;19918;-78
2022/01/30 06:24:36;;;;;;;;;;;;;;;;;;4993906;28;19909;-78
2022/01/30 06:27:02;;;;;;;;;;;;;;;;;;4994367;28;20324;-78
2022/01/30 06:29:28;;;;;;;;;;;;;;;;;;4992903;28;20278;-76
2022/01/30 06:31:54;;;;;;;;;;;;;;;;;;4992645;28;19941;-78
2022/01/30 06:34:20;;;;;;;;;;;;;;;;;;4994011;28;19929;-77
2022/01/30 06:36:46;;;;;;;;;;;;;;;;;;4993946;28;20391;-78
2022/01/30 06:39:12;;;;;;;;;;;;;;;;;;4993993;28;19918;-76
2022/01/30 06:41:37;;;;;;;;;;;;;;;;;;4993930;28;20381;-79
2022/01/30 06:44:05;;;;;;;;;;;;;;;;;;4994406;28;19914;-79
2022/01/30 06:46:31;;;;;;;;;;;;;;;;;;4993488;28;20005;-76
2022/01/30 06:48:57;;;;;;;;;;;;;;;;;;4993682;28;19992;-76
2022/01/30 06:51:22;;;;;;;;;;;;;;;;;;4992407;28;19906;-79
2022/01/30 06:53:48;;;;;;;;;;;;;;;;;;4994080;28;19957;-76
2022/01/30 06:56:14;;;;;;;;;;;;;;;;;;4993935;28;20336;-76
2022/01/30 06:58:40;;;;;;;;;;;;;;;;;;4993458;28;19914;-76
2022/01/30 07:01:06;;;;;;;;;;;;;;;;;;4992378;28;19910;-76
2022/01/30 07:03:32;;;;;;;;;;;;;;;;;;4993597;28;20405;-77
2022/01/30 07:05:58;;;;;;;;;;;;;;;;;;4993222;28;19965;-76
2022/01/30 07:08:24;;;;;;;;;;;;;;;;;;4993499;28;19953;-76
2022/01/30 07:10:50;;;;;;;;;;;;;;;;;;4991740;28;19914;-76
2022/01/30 07:13:15;;;;;;;;;;;;;;;;;;4993236;28;19910;-76
2022/01/30 07:15:41;;;;;;;;;;;;;;;;;;4993023;28;19916;-76
2022/01/30 07:18:07;;;;;;;;;;;;;;;;;;4992304;28;19917;-77
2022/01/30 07:20:33;;;;;;;;;;;;;;;;;;4993056;28;19932;-76
2022/01/30 07:22:59;;;;;;;;;;;;;;;;;;4993181;28;20290;-76
2022/01/30 07:25:25;;;;;;;;;;;;;;;;;;4991945;28;19917;-77
2022/01/30 07:27:51;;;;;;;;;;;;;;;;;;4992921;28;19960;-77
2022/01/30 07:30:17;;;;;;;;;;;;;;;;;;4993384;28;19945;-76
2022/01/30 07:32:43;;;;;;;;;;;;;;;;;;4992742;28;19910;-76
2022/01/30 07:35:09;;;;;;;;;;;;;;;;;;4992994;28;19925;-77
2022/01/30 07:37:35;;;;;;;;;;;;;;;;;;4992570;28;19968;-79
2022/01/30 07:40:02;;;;;;;;;;;;;;;;;;4991970;28;19914;-76
2022/01/30 07:42:28;;;;;;;;;;;;;;;;;;4993162;28;19961;-76
2022/01/30 07:44:54;;;;;;;;;;;;;;;;;;4992890;28;19914;-76
2022/01/30 07:47:20;;;;;;;;;;;;;;;;;;4992274;28;19920;-78
2022/01/30 07:49:51;;;;;;;;;;;;;;;;;;4992575;28;19914;-76
2022/01/30 07:52:18;;;;;;;;;;;;;;;;;;4992990;28;20408;-76
2022/01/30 07:54:44;;;;;;;;;;;;;;;;;;4992902;28;19932;-76
2022/01/30 07:57:10;;;;;;;;;;;;;;;;;;4992833;28;20374;-76
2022/01/30 07:59:36;;;;;;;;;;;;;;;;;;4992305;28;19913;-76
2022/01/30 08:02:02;;;;;;;;;;;;;;;;;;4992063;28;20007;-78
2022/01/30 08:04:28;;;;;;;;;;;;;;;;;;4991935;28;19918;-75
2022/01/30 08:06:54;;;;;;;;;;;;;;;;;;4992601;28;19929;-75
2022/01/30 08:09:20;;;;;;;;;;;;;;;;;;4992766;28;20292;-76
2022/01/30 08:11:46;;;;;;;;;;;;;;;;;;4992105;28;19914;-79
2022/01/30 08:14:12;;;;;;;;;;;;;;;;;;4991838;28;19922;-78
2022/01/30 08:16:38;;;;;;;;;;;;;;;;;;4991659;28;19925;-76
2022/01/30 08:19:04;;;;;;;;;;;;;;;;;;4991929;28;19926;-76
2022/01/30 08:21:30;;;;;;;;;;;;;;;;;;4996061;28;19961;-77
2022/01/30 08:23:56;;;;;;;;;;;;;;;;;;4995761;28;20005;-76
2022/01/30 08:26:21;;;;;;;;;;;;;;;;;;4996422;28;20308;-77
2022/01/30 08:28:47;;;;;;;;;;;;;;;;;;4993009;28;19918;-76
2022/01/30 08:31:13;;;;;;;;;;;;;;;;;;4995831;28;19956;-76
2022/01/30 08:33:39;;;;;;;;;;;;;;;;;;4997003;28;20412;-76
2022/01/30 08:36:05;;;;;;;;;;;;;;;;;;4995849;28;19909;-77
2022/01/30 08:38:31;;;;;;;;;;;;;;;;;;4996877;28;19914;-76
2022/01/30 08:40:57;;;;;;;;;;;;;;;;;;4995794;28;19909;-77
2022/01/30 08:43:23;;;;;;;;;;;;;;;;;;4996886;28;19910;-76
2022/01/30 08:45:49;;;;;;;;;;;;;;;;;;4995569;28;19918;-77
2022/01/30 08:48:15;;;;;;;;;;;;;;;;;;4996724;28;19964;-76
2022/01/30 08:50:41;;;;;;;;;;;;;;;;;;4996771;28;20389;-76
2022/01/30 08:53:07;;;;;;;;;;;;;;;;;;4994997;28;19913;-75
2022/01/30 08:55:33;;;;;;;;;;;;;;;;;;4992419;28;19921;-76
2022/01/30 08:58:00;;;;;;;;;;;;;;;;;;4988563;28;20465;-75
2022/01/30 09:00:26;;;;;;;;;;;;;;;;;;4990191;28;20281;-75
2022/01/30 09:02:52;;;;;;;;;;;;;;;;;;4996088;28;19914;-77
2022/01/30 09:05:18;;;;;;;;;;;;;;;;;;4992027;28;20435;-75
2022/01/30 09:07:43;;;;;;;;;;;;;;;;;;4995228;28;20266;-75
2022/01/30 09:10:09;;;;;;;;;;;;;;;;;;4988872;28;19910;-76
2022/01/30 09:12:35;;;;;;;;;;;;;;;;;;4994999;28;19996;-79
2022/01/30 09:15:01;;;;;;;;;;;;;;;;;;4994395;28;19914;-77
2022/01/30 09:17:28;;;;;;;;;;;;;;;;;;4992718;28;19917;-79
2022/01/30 09:19:54;;;;;;;;;;;;;;;;;;4993674;28;20267;-74
2022/01/30 09:22:20;;;;;;;;;;;;;;;;;;4995140;28;19916;-74
2022/01/30 09:24:46;;;;;;;;;;;;;;;;;;4994579;28;19988;-74
2022/01/30 09:27:12;;;;;;;;;;;;;;;;;;4994510;28;19910;-75
2022/01/30 09:29:38;;;;;;;;;;;;;;;;;;4993398;28;19914;-75
2022/01/30 09:32:04;;;;;;;;;;;;;;;;;;4995600;28;20366;-75
2022/01/30 09:34:29;;;;;;;;;;;;;;;;;;4986721;28;19949;-74
2022/01/30 09:36:55;;;;;;;;;;;;;;;;;;4994060;28;20002;-76
2022/01/30 09:39:21;;;;;;;;;;;;;;;;;;4994561;28;19924;-78
2022/01/30 09:41:47;;;;;;;;;;;;;;;;;;4994334;28;20349;-77
2022/01/30 09:44:13;;;;;;;;;;;;;;;;;;4994055;28;19910;-75
2022/01/30 09:46:39;;;;;;;;;;;;;;;;;;4993231;28;19910;-77
2022/01/30 09:49:05;;;;;;;;;;;;;;;;;;4993895;28;20430;-77
2022/01/30 09:51:31;;;;;;;;;;;;;;;;;;4991677;28;20025;-75
2022/01/30 09:53:57;;;;;;;;;;;;;;;;;;4992642;28;19925;-74
2022/01/30 09:56:23;;;;;;;;;;;;;;;;;;4993675;28;19977;-75
2022/01/30 09:58:49;;;;;;;;;;;;;;;;;;4993167;28;20036;-75
2022/01/30 10:01:15;;;;;;;;;;;;;;;;;;4993922;28;19996;-75
2022/01/30 10:03:41;;;;;;;;;;;;;;;;;;4994067;28;19910;-75
2022/01/30 10:06:07;;;;;;;;;;;;;;;;;;4993033;28;20516;-75
2022/01/30 10:08:41;;;;;;;;;;;;;;;;;;4993667;28;19956;-75
2022/01/30 10:11:26;;;;;;;;;;;;;;;;;;4993125;28;19972;-74
2022/01/30 10:13:52;;;;;;;;;;;;;;;;;;4992878;28;20000;-75
2022/01/30 10:16:18;;;;;;;;;;;;;;;;;;4992437;28;20048;-75
2022/01/30 10:18:44;;;;;;;;;;;;;;;;;;4993885;28;19914;-75
2022/01/30 10:21:10;;;;;;;;;;;;;;;;;;4993049;28;19909;-77
2022/01/30 10:23:36;;;;;;;;;;;;;;;;;;4993343;28;20341;-75
2022/01/30 10:26:06;;;;;;;;;;;;;;;;;;4993257;28;19964;-75
2022/01/30 10:28:32;;;;;;;;;;;;;;;;;;4992870;28;19913;-74
2022/01/30 10:30:58;;;;;;;;;;;;;;;;;;4994631;28;19928;-74
2022/01/30 10:33:24;;;;;;;;;;;;;;;;;;4994062;28;19918;-74
2022/01/30 10:35:50;;;;;;;;;;;;;;;;;;4994176;28;20438;-75
2022/01/30 10:38:16;;;;;;;;;;;;;;;;;;4994061;28;20008;-75
2022/01/30 10:40:46;;;;;;;;;;;;;;;;;;4993606;28;20004;-75
2022/01/30 10:43:12;;;;;;;;;;;;;;;;;;4993741;28;19910;-75
2022/01/30 10:45:38;;;;;;;;;;;;;;;;;;4994047;28;19914;-74
2022/01/30 10:48:04;;;;;;;;;;;;;;;;;;4994025;28;19917;-75
2022/01/30 10:50:30;;;;;;;;;;;;;;;;;;4992826;28;19932;-74
2022/01/30 10:52:56;;;;;;;;;;;;;;;;;;4993305;28;19910;-74
2022/01/30 10:55:22;;;;;;;;;;;;;;;;;;4992906;28;19909;-75
2022/01/30 10:57:48;;;;;;;;;;;;;;;;;;4993658;28;19922;-74
2022/01/30 11:00:14;;;;;;;;;;;;;;;;;;4991578;28;19960;-75
2022/01/30 11:02:40;;;;;;;;;;;;;;;;;;4992743;28;20405;-74
2022/01/30 11:05:07;;;;;;;;;;;;;;;;;;4992805;28;19909;-74
2022/01/30 11:07:33;;;;;;;;;;;;;;;;;;4991101;28;19938;-73
2022/01/30 11:10:04;;;;;;;;;;;;;;;;;;4991833;28;20001;-75
2022/01/30 11:12:40;;;;;;;;;;;;;;;;;;4986478;28;19910;-73
2022/01/30 11:17:44;;;;;;;;;;;;;;;;;;4991442;28;19922;-76
2022/01/30 11:20:13;;;;;;;;;;;;;;;;;;4990586;28;20449;-75
2022/01/30 11:22:38;;;;;;;;;;;;;;;;;;4991893;28;19925;-73
2022/01/30 11:25:04;;;;;;;;;;;;;;;;;;4992194;28;19910;-74
2022/01/30 11:27:33;;;;;;;;;;;;;;;;;;4991972;28;19914;-74
2022/01/30 11:29:59;;;;;;;;;;;;;;;;;;4991593;28;19972;-73
2022/01/30 11:32:27;;;;;;;;;;;;;;;;;;4991591;28;20365;-74
2022/01/30 11:34:53;;;;;;;;;;;;;;;;;;4992819;28;19910;-75
2022/01/30 11:37:19;;;;;;;;;;;;;;;;;;4990295;28;19921;-74
2022/01/30 11:39:44;;;;;;;;;;;;;;;;;;4991888;28;20354;-74
2022/01/30 11:42:10;;;;;;;;;;;;;;;;;;4992323;28;19910;-75
2022/01/30 11:44:36;;;;;;;;;;;;;;;;;;4991029;28;19964;-72
2022/01/30 11:47:02;;;;;;;;;;;;;;;;;;4990464;28;20004;-74
2022/01/30 11:49:28;;;;;;;;;;;;;;;;;;4992685;28;19914;-78
2022/01/30 11:51:54;;;;;;;;;;;;;;;;;;4993034;28;19910;-76
2022/01/30 11:54:20;;;;;;;;;;;;;;;;;;4990901;28;20130;-74
2022/01/30 11:56:46;;;;;;;;;;;;;;;;;;4992779;28;19918;-74
2022/01/30 11:59:12;;;;;;;;;;;;;;;;;;4991818;28;19913;-73
2022/01/30 12:01:38;;;;;;;;;;;;;;;;;;4991827;28;19921;-75
2022/01/30 12:04:04;;;;;;;;;;;;;;;;;;4992874;28;20271;-73
2022/01/30 12:06:30;;;;;;;;;;;;;;;;;;4991156;28;19929;-74
2022/01/30 12:08:55;;;;;;;;;;;;;;;;;;4993324;28;19909;-74
2022/01/30 12:11:21;;;;;;;;;;;;;;;;;;4993063;28;19906;-73
2022/01/30 12:13:47;;;;;;;;;;;;;;;;;;4991114;28;20398;-74
2022/01/30 12:16:13;;;;;;;;;;;;;;;;;;4991973;28;19913;-74
2022/01/30 12:18:39;;;;;;;;;;;;;;;;;;4992147;28;20369;-74
2022/01/30 12:21:08;;;;;;;;;;;;;;;;;;4992940;28;20358;-76
2022/01/30 12:23:34;;;;;;;;;;;;;;;;;;4993102;28;19917;-74
2022/01/30 12:26:04;;;;;;;;;;;;;;;;;;4993063;28;19909;-77
2022/01/30 12:28:30;;;;;;;;;;;;;;;;;;4992401;28;19961;-73
2022/01/30 12:30:56;;;;;;;;;;;;;;;;;;4991403;28;19917;-74
2022/01/30 12:33:22;;;;;;;;;;;;;;;;;;4991815;28;20274;-76
2022/01/30 12:35:48;;;;;;;;;;;;;;;;;;4992005;28;19913;-76
2022/01/30 12:38:14;;;;;;;;;;;;;;;;;;4992583;28;19913;-74
2022/01/30 12:40:40;;;;;;;;;;;;;;;;;;4992099;28;19917;-75
2022/01/30 12:43:06;;;;;;;;;;;;;;;;;;4992341;28;19961;-74
2022/01/30 12:45:32;;;;;;;;;;;;;;;;;;4992794;28;20436;-74
2022/01/30 12:47:57;;;;;;;;;;;;;;;;;;4990059;28;19920;-74
2022/01/30 12:50:28;;;;;;;;;;;;;;;;;;4986751;28;19914;-74
2022/01/30 12:52:54;;;;;;;;;;;;;;;;;;4987854;28;19914;-74
2022/01/30 12:55:20;;;;;;;;;;;;;;;;;;4988752;28;19922;-75
2022/01/30 12:57:46;;;;;;;;;;;;;;;;;;4988250;28;19922;-74
2022/01/30 13:00:12;;;;;;;;;;;;;;;;;;4989337;28;19920;-76
2022/01/30 13:02:38;;;;;;;;;;;;;;;;;;4989304;28;19980;-74
2022/01/30 13:05:03;;;;;;;;;;;;;;;;;;4988955;28;19922;-75
2022/01/30 13:07:29;;;;;;;;;;;;;;;;;;4993119;28;19925;-74
2022/01/30 13:09:55;;;;;;;;;;;;;;;;;;4992213;28;19910;-74
2022/01/30 13:12:21;;;;;;;;;;;;;;;;;;4993391;28;19976;-74
2022/01/30 13:14:47;;;;;;;;;;;;;;;;;;4992020;28;19910;-74
2022/01/30 13:17:13;;;;;;;;;;;;;;;;;;4992903;28;19910;-76
2022/01/30 13:19:39;;;;;;;;;;;;;;;;;;5017538;28;20009;-74
2022/01/30 13:22:05;;;;;;;;;;;;;;;;;;4992231;28;19914;-76
2022/01/30 13:24:31;;;;;;;;;;;;;;;;;;4993446;28;19956;-76
2022/01/30 13:26:57;;;;;;;;;;;;;;;;;;4992687;28;19909;-76
2022/01/30 13:29:22;;;;;;;;;;;;;;;;;;4992277;28;19910;-74
2022/01/30 13:31:48;;;;;;;;;;;;;;;;;;4993540;28;19917;-74
2022/01/30 13:34:14;;;;;;;;;;;;;;;;;;4993114;28;19917;-74
2022/01/30 13:36:40;;;;;;;;;;;;;;;;;;4990204;28;19960;-76
2022/01/30 13:39:08;;;;;;;;;;;;;;;;;;4992659;28;20067;-76
2022/01/30 13:44:30;;;;;;;;;;;;;;;;;;4983002;28;19934;-76
2022/01/30 13:47:03;;;;;;;;;;;;;;;;;;4994701;28;19956;-76
2022/01/30 13:49:29;;;;;;;;;;;;;;;;;;4992118;28;19910;-76
2022/01/30 13:51:55;;;;;;;;;;;;;;;;;;4993213;28;19917;-76
2022/01/30 13:54:21;;;;;;;;;;;;;;;;;;4992954;28;19940;-75
2022/01/30 13:56:46;;;;;;;;;;;;;;;;;;4993475;28;19909;-76
2022/01/30 13:59:12;;;;;;;;;;;;;;;;;;4990901;28;20017;-76
2022/01/30 14:01:40;;;;;;;;;;;;;;;;;;4993693;28;20438;-76
2022/01/30 14:04:11;;;;;;;;;;;;;;;;;;4994095;28;20365;-76
2022/01/30 14:06:37;;;;;;;;;;;;;;;;;;4996039;28;19968;-76
2022/01/30 14:09:02;;;;;;;;;;;;;;;;;;4995113;28;20297;-76
2022/01/30 14:11:28;;;;;;;;;;;;;;;;;;4994911;28;20254;-76
2022/01/30 14:13:59;;;;;;;;;;;;;;;;;;4994220;28;20008;-75
2022/01/30 14:16:25;;;;;;;;;;;;;;;;;;4993704;28;19910;-75
2022/01/30 14:18:53;;;;;;;;;;;;;;;;;;4993360;28;20008;-76
2022/01/30 14:21:19;;;;;;;;;;;;;;;;;;4991770;28;19949;-76
2022/01/30 14:23:45;;;;;;;;;;;;;;;;;;4995450;28;19953;-76
2022/01/30 14:26:11;;;;;;;;;;;;;;;;;;4994312;28;19910;-76
2022/01/30 14:28:37;;;;;;;;;;;;;;;;;;4994290;28;20381;-76
2022/01/30 14:31:03;;;;;;;;;;;;;;;;;;4993099;28;19916;-76
2022/01/30 14:33:29;;;;;;;;;;;;;;;;;;4993480;28;19910;-76
2022/01/30 14:35:55;;;;;;;;;;;;;;;;;;4994787;28;19909;-76
2022/01/30 14:38:21;;;;;;;;;;;;;;;;;;4993882;28;19914;-76
2022/01/30 14:40:48;;;;;;;;;;;;;;;;;;4993200;28;20282;-76
2022/01/30 14:43:14;;;;;;;;;;;;;;;;;;4993521;28;20366;-76
2022/01/30 14:45:40;;;;;;;;;;;;;;;;;;4994357;28;20005;-76
2022/01/30 14:48:06;;;;;;;;;;;;;;;;;;4993648;28;19910;-76
2022/01/30 14:50:32;;;;;;;;;;;;;;;;;;4994168;28;19910;-75
2022/01/30 14:52:58;;;;;;;;;;;;;;;;;;4993700;28;19910;-76
2022/01/30 14:55:24;;;;;;;;;;;;;;;;;;4994034;28;20032;-74
2022/01/30 14:57:51;;;;;;;;;;;;;;;;;;4993825;28;19914;-76
2022/01/30 15:00:18;;;;;;;;;;;;;;;;;;4993859;28;19940;-76
2022/01/30 15:02:44;;;;;;;;;;;;;;;;;;4993016;28;19931;-77
2022/01/30 15:05:10;;;;;;;;;;;;;;;;;;4985708;28;19917;-76
2022/01/30 15:07:36;;;;;;;;;;;;;;;;;;4990939;28;20279;-75
2022/01/30 15:10:02;;;;;;;;;;;;;;;;;;4993115;28;20350;-76
2022/01/30 15:12:27;;;;;;;;;;;;;;;;;;4993125;28;19920;-76
2022/01/30 15:14:53;;;;;;;;;;;;;;;;;;4993678;28;19917;-76
2022/01/30 15:17:23;;;;;;;;;;;;;;;;;;4991517;28;20483;-76
2022/01/30 15:19:48;;;;;;;;;;;;;;;;;;4992523;28;19952;-76
2022/01/30 15:22:14;;;;;;;;;;;;;;;;;;4991028;28;19945;-76
2022/01/30 15:24:41;;;;;;;;;;;;;;;;;;4992792;28;19945;-76
2022/01/30 15:27:07;;;;;;;;;;;;;;;;;;4993181;28;20338;-76
2022/01/30 15:29:33;;;;;;;;;;;;;;;;;;4992812;28;19910;-76
2022/01/30 15:31:59;;;;;;;;;;;;;;;;;;4992862;28;19910;-76
2022/01/30 15:34:24;;;;;;;;;;;;;;;;;;4992809;28;19914;-76
2022/01/30 15:36:50;;;;;;;;;;;;;;;;;;4992982;28;19910;-76
2022/01/30 15:39:16;;;;;;;;;;;;;;;;;;4993007;28;19925;-76
2022/01/30 15:41:42;;;;;;;;;;;;;;;;;;4992114;28;20420;-76
2022/01/30 15:44:13;;;;;;;;;;;;;;;;;;4992772;28;19997;-76
2022/01/30 15:49:23;;;;;;;;;;;;;;;;;;4990129;28;19964;-76
2022/01/30 15:51:49;;;;;;;;;;;;;;;;;;4990348;28;19917;-76
2022/01/30 15:54:15;;;;;;;;;;;;;;;;;;4992653;28;19913;-76
2022/01/30 15:56:41;;;;;;;;;;;;;;;;;;4990137;28;19917;-76
2022/01/30 15:59:07;;;;;;;;;;;;;;;;;;4991770;28;19914;-76
2022/01/30 16:01:33;;;;;;;;;;;;;;;;;;4990952;28;20354;-76
2022/01/30 16:03:59;;;;;;;;;;;;;;;;;;4991952;28;20358;-76
2022/01/30 16:06:25;;;;;;;;;;;;;;;;;;4992050;28;19922;-76
2022/01/30 16:08:57;;;;;;;;;;;;;;;;;;4992127;28;19945;-76
2022/01/30 16:16:33;;;;;;;;;;;;;;;;;;4992241;28;19917;-76
2022/01/30 16:18:59;;;;;;;;;;;;;;;;;;4992087;28;19913;-76
2022/01/30 16:21:25;;;;;;;;;;;;;;;;;;4992739;28;19909;-76
2022/01/30 16:23:51;;;;;;;;;;;;;;;;;;4991769;28;19949;-76
2022/01/30 16:26:17;;;;;;;;;;;;;;;;;;4992880;28;19916;-76
2022/01/30 16:28:43;;;;;;;;;;;;;;;;;;4991788;28;19917;-76
2022/01/30 16:31:09;;;;;;;;;;;;;;;;;;4991842;28;19921;-76
2022/01/30 16:33:35;;;;;;;;;;;;;;;;;;4992920;28;19914;-78
2022/01/30 16:36:01;;;;;;;;;;;;;;;;;;4991295;28;20418;-76
2022/01/30 16:38:27;;;;;;;;;;;;;;;;;;4992865;28;20004;-75
2022/01/30 16:40:53;;;;;;;;;;;;;;;;;;4996103;28;19916;-76
2022/01/30 16:43:24;;;;;;;;;;;;;;;;;;4995869;28;20389;-76
2022/01/30 16:45:52;;;;;;;;;;;;;;;;;;4995900;28;19946;-75
2022/01/30 16:48:18;;;;;;;;;;;;;;;;;;4995982;28;19972;-76
2022/01/30 16:50:44;;;;;;;;;;;;;;;;;;4995923;28;19953;-75
2022/01/30 16:53:12;;;;;;;;;;;;;;;;;;4995404;28;19968;-75
2022/01/30 16:55:38;;;;;;;;;;;;;;;;;;4995914;28;20013;-75
2022/01/30 16:58:06;;;;;;;;;;;;;;;;;;4994563;28;20016;-75
2022/01/30 17:00:32;;;;;;;;;;;;;;;;;;4996104;28;19918;-75
2022/01/30 17:02:58;;;;;;;;;;;;;;;;;;4995754;28;20005;-78
2022/01/30 17:05:24;;;;;;;;;;;;;;;;;;4994944;28;20028;-78
2022/01/30 17:07:50;;;;;;;;;;;;;;;;;;4996408;28;19989;-78
2022/01/30 17:10:19;;;;;;;;;;;;;;;;;;4995881;28;19963;-77
2022/01/30 17:12:56;;;;;;;;;;;;;;;;;;4995148;28;19910;-78
2022/01/30 17:15:22;;;;;;;;;;;;;;;;;;4996013;28;20282;-78
2022/01/30 17:17:48;;;;;;;;;;;;;;;;;;4994616;28;20242;-79
2022/01/30 17:20:14;;;;;;;;;;;;;;;;;;4995788;28;19917;-77
2022/01/30 17:22:40;;;;;;;;;;;;;;;;;;4996156;28;19913;-77
2022/01/30 17:25:06;;;;;;;;;;;;;;;;;;4993807;28;19910;-77
2022/01/30 17:27:32;;;;;;;;;;;;;;;;;;4990904;28;19916;-78
2022/01/30 17:29:58;;;;;;;;;;;;;;;;;;4992391;28;19929;-77
2022/01/30 17:32:24;;;;;;;;;;;;;;;;;;4992442;28;19926;-78
2022/01/30 17:34:50;;;;;;;;;;;;;;;;;;4993450;28;19914;-78
2022/01/30 17:37:16;;;;;;;;;;;;;;;;;;4994539;28;19921;-77
2022/01/30 17:39:42;;;;;;;;;;;;;;;;;;4995202;28;20053;-78
2022/01/30 17:42:08;;;;;;;;;;;;;;;;;;4992279;28;19921;-77